Time;durP1;ratioP1;P1;durP2;ratioP2;P2;SDS_P1;SDS_P2;PMS_P1;PMS_P2;Temp;Humidity;BMP_temperature;BMP_pressure;BME280_temperature;BME280_humidity;BME280_pressure;Samples;Min_cycle;Max_cycle;Signal;HPM_P1;HPM_P2
2022/06/16 00:00:05;;;;;;;0.00;0.00;;;17.60;99.90;;;;;;5025931;28;20772;-77
2022/06/16 00:02:39;;;;;;;0.00;0.00;;;17.60;99.90;;;;;;5045646;28;20246;-78
2022/06/16 00:05:12;;;;;;;0.00;0.00;;;17.60;99.90;;;;;;5020773;28;20307;-77
2022/06/16 00:07:39;;;;;;;0.00;0.00;;;17.50;99.90;;;;;;5027234;28;20209;-77
2022/06/16 00:10:08;;;;;;;0.00;0.00;;;17.40;99.90;;;;;;5027329;28;20214;-77
2022/06/16 00:12:35;;;;;;;0.00;0.00;;;17.40;99.90;;;;;;5047453;28;20243;-77
2022/06/16 00:15:04;;;;;;;0.00;0.00;;;17.40;99.90;;;;;;5023852;28;20196;-77
2022/06/16 00:17:31;;;;;;;0.00;0.00;;;;;;;;;;5022610;28;20204;-77
2022/06/16 00:20:00;;;;;;;0.00;0.00;;;;;;;;;;5026368;28;20199;-77
2022/06/16 00:22:29;;;;;;;0.00;0.00;;;;;;;;;;5029486;28;20215;-76
2022/06/16 00:24:56;;;;;;;0.00;0.00;;;;;;;;;;5029193;28;20740;-76
2022/06/16 00:27:24;;;;;;;0.00;0.00;;;;;;;;;;5045138;28;20195;-76
2022/06/16 00:29:51;;;;;;;0.00;0.00;;;;;;;;;;5025620;28;20218;-77
2022/06/16 00:32:19;;;;;;;0.00;0.00;;;;;;;;;;5023555;28;20237;-76
2022/06/16 00:34:46;;;;;;;0.00;0.00;;;;;;;;;;5025933;28;20199;-75
2022/06/16 00:37:14;;;;;;;0.00;0.00;;;;;;;;;;5025865;28;20307;-75
2022/06/16 00:39:42;;;;;;;0.00;0.00;;;;;;;;;;5029373;28;20753;-75
2022/06/16 00:42:10;;;;;;;0.00;0.00;;;;;;;;;;5029564;28;20278;-76
2022/06/16 00:44:39;;;;;;;0.00;0.00;;;;;;;;;;5028729;28;20280;-76
2022/06/16 00:47:08;;;;;;;0.00;0.00;;;;;;;;;;5028662;28;20207;-76
2022/06/16 00:49:37;;;;;;;0.00;0.00;;;;;;;;;;5021886;28;20640;-76
2022/06/16 00:52:08;;;;;;;0.00;0.00;;;;;;;;;;5026614;28;20254;-76
2022/06/16 00:54:38;;;;;;;0.00;0.00;;;;;;;;;;5028544;28;20263;-76
2022/06/16 00:57:09;;;;;;;0.00;0.00;;;;;;;;;;5027617;28;20345;-76
2022/06/16 00:59:38;;;;;;;0.00;0.00;;;;;;;;;;5041219;28;20199;-75
2022/06/16 01:02:06;;;;;;;0.00;0.00;;;;;;;;;;5027858;28;20219;-76
2022/06/16 01:04:51;;;;;;;0.00;0.00;;;;;;;;;;5027309;28;20219;-77
2022/06/16 01:07:22;;;;;;;0.00;0.00;;;17.00;99.90;;;;;;5045176;28;20630;-77
2022/06/16 01:09:51;;;;;;;0.00;0.00;;;17.00;99.90;;;;;;5021055;28;20203;-77
2022/06/16 01:15:29;;;;;;;0.00;0.00;;;16.80;99.90;;;;;;5025036;28;20199;-78
2022/06/16 01:18:00;;;;;;;0.00;0.00;;;;;;;;;;5036295;28;20196;-77
2022/06/16 01:20:36;;;;;;;0.00;0.00;;;;;;;;;;5027850;28;20195;-78
2022/06/16 01:23:13;;;;;;;0.00;0.00;;;;;;;;;;5026566;28;20226;-76
2022/06/16 01:25:49;;;;;;;0.00;0.00;;;;;;;;;;5020942;28;20199;-77
2022/06/16 01:28:26;;;;;;;0.00;0.00;;;;;;;;;;5027631;28;20202;-77
2022/06/16 01:30:58;;;;;;;0.00;0.00;;;;;;;;;;5022014;28;20206;-76
2022/06/16 01:33:31;;;;;;;0.00;0.00;;;;;;;;;;5028595;28;20196;-76
2022/06/16 01:36:01;;;;;;;0.00;0.00;;;;;;;;;;5026438;28;20223;-75
2022/06/16 01:38:32;;;;;;;0.00;0.00;;;;;;;;;;5028295;28;20260;-77
2022/06/16 01:41:07;;;;;;;0.00;0.00;;;16.70;99.90;;;;;;5026386;28;20203;-77
2022/06/16 01:43:38;;;;;;;0.00;0.00;;;16.70;99.90;;;;;;5027776;28;20198;-78
2022/06/16 01:46:14;;;;;;;0.00;0.00;;;16.70;99.90;;;;;;5026793;28;20206;-76
2022/06/16 01:48:44;;;;;;;0.00;0.00;;;;;;;;;;5021176;28;20198;-77
2022/06/16 01:51:14;;;;;;;0.00;0.00;;;;;;;;;;5027323;28;20226;-77
2022/06/16 01:53:45;;;;;;;0.00;0.00;;;;;;;;;;5016065;28;20261;-78
2022/06/16 01:56:17;;;;;;;0.00;0.00;;;;;;;;;;5017680;28;20200;-77
2022/06/16 01:58:46;;;;;;;0.00;0.00;;;;;;;;;;5020211;28;20215;-77
2022/06/16 02:01:18;;;;;;;0.00;0.00;;;;;;;;;;5024214;28;20284;-77
2022/06/16 02:03:52;;;;;;;0.00;0.00;;;16.60;99.90;;;;;;5024273;28;20205;-77
2022/06/16 02:06:21;;;;;;;0.00;0.00;;;;;;;;;;5024651;28;20210;-77
2022/06/16 02:08:52;;;;;;;0.00;0.00;;;16.50;99.90;;;;;;5022200;28;20241;-77
2022/06/16 02:11:24;;;;;;;0.00;0.00;;;16.40;99.90;;;;;;5022022;28;20235;-77
2022/06/16 02:13:55;;;;;;;0.00;0.00;;;16.40;99.90;;;;;;5026452;28;20749;-77
2022/06/16 02:16:30;;;;;;;0.00;0.00;;;16.40;99.90;;;;;;5022466;28;20290;-77
2022/06/16 02:19:01;;;;;;;0.00;0.00;;;16.40;99.90;;;;;;5021375;28;20209;-77
2022/06/16 02:21:34;;;;;;;0.00;0.00;;;16.30;99.90;;;;;;5027462;28;20317;-76
2022/06/16 02:24:02;;;;;;;0.00;0.00;;;16.30;99.90;;;;;;5022458;28;20283;-77
2022/06/16 02:26:29;;;;;;;0.00;0.00;;;16.20;99.90;;;;;;5026295;28;20199;-77
2022/06/16 02:28:59;;;;;;;0.00;0.00;;;16.10;99.90;;;;;;5025299;28;20278;-77
2022/06/16 02:31:38;;;;;;;0.00;0.00;;;16.10;99.90;;;;;;5024855;28;20268;-77
2022/06/16 02:34:15;;;;;;;0.00;0.00;;;16.10;99.90;;;;;;5023018;28;20265;-77
2022/06/16 02:36:48;;;;;;;0.00;0.00;;;;;;;;;;5034493;28;20258;-77
2022/06/16 02:39:29;;;;;;;0.00;0.00;;;15.90;99.90;;;;;;5024476;28;20312;-77
2022/06/16 02:42:05;;;;;;;0.00;0.00;;;15.90;99.90;;;;;;5027073;28;20305;-77
2022/06/16 02:44:40;;;;;;;0.00;0.00;;;16.00;99.90;;;;;;5025711;28;20222;-77
2022/06/16 02:47:16;;;;;;;0.00;0.00;;;15.90;99.90;;;;;;5026025;28;20237;-76
2022/06/16 02:49:48;;;;;;;0.00;0.00;;;15.90;99.90;;;;;;5017718;28;20277;-76
2022/06/16 02:52:23;;;;;;;0.00;0.00;;;15.80;99.90;;;;;;5020239;28;20310;-76
2022/06/16 02:55:00;;;;;;;0.00;0.00;;;15.80;99.90;;;;;;5017823;28;20283;-77
2022/06/16 02:57:36;;;;;;;0.00;0.00;;;15.70;99.90;;;;;;5021542;28;20203;-76
2022/06/16 03:00:08;;;;;;;0.00;0.00;;;15.60;99.90;;;;;;5022510;28;20195;-77
2022/06/16 03:02:40;;;;;;;0.00;0.00;;;15.60;99.90;;;;;;5022523;28;20277;-76
2022/06/16 03:05:08;;;;;;;0.00;0.00;;;15.60;99.90;;;;;;5024231;28;20223;-76
2022/06/16 03:07:36;;;;;;;0.00;0.00;;;15.60;99.90;;;;;;5023790;28;20203;-76
2022/06/16 03:10:50;;;;;;;0.00;0.00;;;15.70;99.90;;;;;;5030492;28;20266;-76
2022/06/16 03:13:07;;;;;;;0.00;0.00;;;15.80;99.90;;;;;;5027410;28;20265;-76
2022/06/16 03:15:35;;;;;;;0.00;0.00;;;15.80;99.90;;;;;;5028188;28;20215;-76
2022/06/16 03:18:03;;;;;;;0.00;0.00;;;15.90;99.90;;;;;;5022208;28;20287;-76
2022/06/16 03:20:30;;;;;;;0.00;0.00;;;15.90;99.90;;;;;;5030548;28;20203;-76
2022/06/16 03:22:57;;;;;;;0.00;0.00;;;15.90;99.90;;;;;;5030300;28;20243;-76
2022/06/16 03:25:24;;;;;;;0.00;0.00;;;15.80;99.90;;;;;;5025167;28;20467;-77
2022/06/16 03:27:56;;;;;;;0.00;0.00;;;15.80;99.90;;;;;;5029764;28;20233;-76
2022/06/16 03:30:25;;;;;;;0.00;0.00;;;15.80;99.90;;;;;;5030680;28;20199;-76
2022/06/16 03:32:52;;;;;;;0.00;0.00;;;15.80;99.90;;;;;;5029710;28;20215;-78
2022/06/16 03:35:23;;;;;;;0.00;0.00;;;15.80;99.90;;;;;;5026282;28;20710;-77
2022/06/16 03:37:54;;;;;;;0.07;0.07;;;15.80;99.90;;;;;;5028367;28;20196;-76
2022/06/16 03:40:22;;;;;;;0.00;0.00;;;15.90;99.90;;;;;;5028786;28;20215;-76
2022/06/16 03:42:52;;;;;;;0.00;0.00;;;15.90;99.90;;;;;;5028544;28;20212;-76
2022/06/16 03:45:21;;;;;;;0.00;0.00;;;16.00;99.90;;;;;;5029883;28;20243;-77
2022/06/16 03:47:49;;;;;;;0.00;0.00;;;16.00;99.90;;;;;;5021060;28;20253;-76
2022/06/16 03:50:19;;;;;;;0.00;0.00;;;16.00;99.90;;;;;;5027700;28;20276;-76
2022/06/16 03:52:50;;;;;;;0.00;0.00;;;16.10;99.90;;;;;;5026969;28;20250;-76
2022/06/16 03:55:18;;;;;;;0.00;0.00;;;16.20;99.90;;;;;;5024388;28;20203;-77
2022/06/16 03:57:50;;;;;;;0.00;0.00;;;16.30;99.90;;;;;;5023341;28;20203;-77
2022/06/16 04:00:18;;;;;;;0.00;0.00;;;16.40;99.90;;;;;;5027367;28;20207;-77
2022/06/16 04:02:45;;;;;;;0.00;0.00;;;16.50;99.90;;;;;;5041288;28;20246;-77
2022/06/16 04:05:15;;;;;;;0.00;0.00;;;16.50;99.90;;;;;;5021501;28;20227;-76
2022/06/16 04:07:50;;;;;;;0.00;0.00;;;16.60;99.90;;;;;;5023043;28;20195;-76
2022/06/16 04:10:24;;;;;;;0.00;0.00;;;16.60;99.90;;;;;;5028665;28;20294;-77
2022/06/16 04:12:51;;;;;;;0.00;0.00;;;16.60;99.90;;;;;;5029602;28;20218;-76
2022/06/16 04:15:24;;;;;;;0.00;0.00;;;16.60;99.90;;;;;;5027344;28;20214;-76
2022/06/16 04:17:54;;;;;;;0.00;0.00;;;16.50;99.90;;;;;;5045543;28;20253;-76
2022/06/16 04:20:33;;;;;;;0.00;0.00;;;16.50;99.90;;;;;;5027772;28;20203;-76
2022/06/16 04:23:05;;;;;;;0.00;0.00;;;16.50;99.90;;;;;;5028779;28;20225;-78
2022/06/16 04:25:34;;;;;;;0.00;0.00;;;16.40;99.90;;;;;;5021567;28;20207;-77
2022/06/16 04:28:11;;;;;;;0.00;0.00;;;16.40;99.90;;;;;;5028603;28;20191;-76
2022/06/16 04:30:46;;;;;;;0.00;0.00;;;16.30;99.90;;;;;;5024569;28;20199;-77
2022/06/16 04:33:13;;;;;;;0.00;0.00;;;16.30;99.90;;;;;;5016877;28;20227;-77
2022/06/16 04:35:42;;;;;;;0.00;0.00;;;16.30;99.90;;;;;;5019652;28;20204;-78
2022/06/16 04:38:12;;;;;;;0.00;0.00;;;16.30;99.90;;;;;;5021964;28;20191;-77
2022/06/16 04:40:41;;;;;;;0.00;0.00;;;16.30;99.90;;;;;;5040423;28;20210;-77
2022/06/16 04:43:15;;;;;;;0.00;0.00;;;16.30;99.90;;;;;;5025342;28;20215;-79
2022/06/16 04:45:46;;;;;;;0.00;0.00;;;16.40;99.90;;;;;;5027038;28;20215;-78
2022/06/16 04:48:13;;;;;;;0.07;0.07;;;16.40;99.90;;;;;;5021014;28;20203;-78
2022/06/16 04:50:42;;;;;;;0.00;0.00;;;16.50;99.90;;;;;;5016662;28;20241;-78
2022/06/16 04:53:15;;;;;;;0.00;0.00;;;16.50;99.90;;;;;;5019935;28;20226;-78
2022/06/16 04:56:09;;;;;;;0.00;0.00;;;16.60;99.90;;;;;;5036161;28;20207;-78
2022/06/16 04:58:57;;;;;;;0.00;0.00;;;16.60;99.90;;;;;;5025894;28;20312;-79
2022/06/16 05:01:30;;;;;;;0.00;0.00;;;16.70;99.90;;;;;;5038156;28;20227;-79
2022/06/16 05:04:15;;;;;;;0.00;0.00;;;16.70;99.90;;;;;;5026645;28;20217;-78
2022/06/16 05:07:01;;;;;;;0.00;0.00;;;17.00;99.90;;;;;;5038500;28;20248;-79
2022/06/16 05:09:49;;;;;;;0.00;0.00;;;17.20;99.90;;;;;;5043400;28;20226;-79
2022/06/16 05:12:36;;;;;;;0.07;0.07;;;17.50;99.90;;;;;;5024633;28;20215;-79
2022/06/16 05:15:17;;;;;;;0.00;0.00;;;17.80;99.90;;;;;;5027035;28;20683;-80
2022/06/16 05:18:08;;;;;;;0.00;0.00;;;18.00;99.90;;;;;;5023137;28;20254;-80
2022/06/16 05:21:08;;;;;;;0.10;0.10;;;18.10;99.90;;;;;;5023631;28;20200;-79
2022/06/16 05:23:54;;;;;;;0.00;0.00;;;18.10;99.90;;;;;;5039804;28;20207;-77
2022/06/16 05:26:52;;;;;;;0.00;0.00;;;18.10;99.90;;;;;;5013773;28;20234;-77
2022/06/16 05:29:37;;;;;;;0.00;0.00;;;18.00;99.90;;;;;;5023371;28;20221;-77
2022/06/16 05:32:18;;;;;;;0.00;0.00;;;18.00;99.90;;;;;;5027830;28;20223;-77
2022/06/16 05:35:21;;;;;;;0.00;0.00;;;17.90;99.90;;;;;;4961942;28;20225;-78
2022/06/16 05:38:08;;;;;;;0.00;0.00;;;17.80;99.90;;;;;;5018245;28;20199;-77
2022/06/16 05:40:43;;;;;;;0.00;0.00;;;17.70;99.90;;;;;;5021635;28;20199;-78
2022/06/16 05:43:26;;;;;;;0.00;0.00;;;17.60;99.90;;;;;;5028523;28;20312;-78
2022/06/16 05:46:05;;;;;;;0.00;0.00;;;17.60;99.90;;;;;;5022631;28;20348;-78
2022/06/16 05:48:42;;;;;;;0.00;0.00;;;17.50;99.90;;;;;;5021737;28;20199;-77
2022/06/16 05:51:14;;;;;;;0.00;0.00;;;17.50;99.90;;;;;;5024399;28;20272;-78
2022/06/16 05:53:59;;;;;;;0.00;0.00;;;17.40;99.90;;;;;;5022465;28;20206;-78
2022/06/16 05:56:31;;;;;;;0.00;0.00;;;17.30;99.90;;;;;;5024929;28;20211;-77
2022/06/16 05:58:59;;;;;;;0.00;0.00;;;17.30;99.90;;;;;;5025895;28;20198;-78
2022/06/16 06:01:27;;;;;;;0.00;0.00;;;17.30;99.90;;;;;;5025663;28;20306;-78
2022/06/16 06:04:02;;;;;;;0.00;0.00;;;17.20;99.90;;;;;;5026307;28;20199;-78
2022/06/16 06:06:29;;;;;;;0.00;0.00;;;17.20;99.90;;;;;;5026790;28;20361;-78
2022/06/16 06:17:21;;;;;;;0.00;0.00;;;17.30;99.90;;;;;;5021932;28;20336;-77
2022/06/16 06:19:52;;;;;;;0.00;0.00;;;17.30;99.90;;;;;;5025320;28;20204;-78
2022/06/16 06:22:24;;;;;;;0.00;0.00;;;17.30;99.90;;;;;;5026993;28;20227;-77
2022/06/16 06:25:12;;;;;;;0.00;0.00;;;17.30;99.90;;;;;;5021754;28;20219;-77
2022/06/16 06:27:42;;;;;;;0.00;0.00;;;17.40;99.90;;;;;;5024433;28;20222;-78
2022/06/16 06:30:14;;;;;;;0.00;0.00;;;17.50;99.90;;;;;;5023625;28;20199;-78
2022/06/16 06:32:42;;;;;;;0.00;0.00;;;17.50;99.90;;;;;;5016578;28;20322;-79
2022/06/16 06:35:09;;;;;;;0.00;0.00;;;17.60;99.90;;;;;;5020963;28;20255;-77
2022/06/16 06:37:36;;;;;;;0.00;0.00;;;17.70;99.90;;;;;;5022266;28;20215;-80
2022/06/16 06:40:06;;;;;;;0.00;0.00;;;17.80;99.90;;;;;;5023263;28;20699;-78
2022/06/16 06:42:33;;;;;;;0.00;0.00;;;18.00;99.90;;;;;;5021160;28;20304;-77
2022/06/16 06:45:03;;;;;;;0.00;0.00;;;18.30;99.90;;;;;;5025179;28;20711;-77
2022/06/16 06:47:34;;;;;;;0.00;0.00;;;18.40;99.90;;;;;;5022353;28;20203;-77
2022/06/16 06:50:04;;;;;;;0.00;0.00;;;18.60;99.90;;;;;;5023597;28;20664;-80
2022/06/16 06:52:30;;;;;;;0.00;0.00;;;18.80;99.90;;;;;;5019946;28;20576;-80
2022/06/16 06:54:57;;;;;;;0.00;0.00;;;18.90;99.90;;;;;;5020042;28;20199;-78
2022/06/16 06:57:27;;;;;;;0.00;0.00;;;19.10;99.90;;;;;;5025697;28;20206;-76
2022/06/16 06:59:55;;;;;;;0.00;0.00;;;19.40;99.90;;;;;;5039859;28;20195;-78
2022/06/16 07:02:22;;;;;;;0.00;0.00;;;19.60;99.90;;;;;;5025805;28;20306;-77
2022/06/16 07:04:52;;;;;;;0.00;0.00;;;19.80;99.90;;;;;;5015059;28;20210;-75
2022/06/16 07:07:22;;;;;;;0.00;0.00;;;19.90;99.90;;;;;;5015333;28;20215;-78
2022/06/16 07:09:50;;;;;;;0.00;0.00;;;20.00;99.90;;;;;;5017717;28;20660;-77
2022/06/16 07:12:19;;;;;;;0.00;0.00;;;20.00;99.90;;;;;;5024701;28;20223;-77
2022/06/16 07:14:48;;;;;;;0.00;0.00;;;20.00;99.90;;;;;;5021525;28;20226;-77
2022/06/16 07:17:17;;;;;;;0.00;0.00;;;20.00;99.90;;;;;;5032111;28;20273;-76
2022/06/16 07:19:44;;;;;;;0.00;0.00;;;20.10;99.90;;;;;;5023098;28;20222;-76
2022/06/16 07:22:13;;;;;;;0.00;0.00;;;20.20;99.90;;;;;;5042233;28;20276;-76
2022/06/16 07:24:40;;;;;;;0.00;0.00;;;20.40;99.90;;;;;;5020913;28;20191;-77
2022/06/16 07:27:09;;;;;;;0.00;0.00;;;20.30;99.90;;;;;;5024621;28;20635;-77
2022/06/16 07:29:37;;;;;;;0.00;0.00;;;20.30;99.90;;;;;;5021686;28;20290;-75
2022/06/16 07:32:05;;;;;;;0.00;0.00;;;20.30;99.90;;;;;;5022935;28;20215;-74
2022/06/16 07:34:32;;;;;;;0.00;0.00;;;20.30;99.90;;;;;;5025946;28;20199;-75
2022/06/16 07:37:00;;;;;;;0.00;0.00;;;20.40;99.90;;;;;;5025356;28;20278;-75
2022/06/16 07:39:29;;;;;;;0.00;0.00;;;20.40;99.90;;;;;;5021123;28;20203;-77
2022/06/16 07:41:56;;;;;;;0.00;0.00;;;20.50;99.90;;;;;;5042590;28;20226;-76
2022/06/16 07:44:23;;;;;;;0.00;0.00;;;20.60;99.90;;;;;;5035459;28;20204;-78
2022/06/16 07:46:50;;;;;;;0.00;0.00;;;20.80;99.90;;;;;;5025485;28;20542;-76
2022/06/16 07:49:22;;;;;;;0.00;0.00;;;21.00;99.90;;;;;;5043404;28;20203;-76
2022/06/16 07:51:50;;;;;;;0.00;0.00;;;21.10;99.90;;;;;;5045552;28;20222;-76
2022/06/16 07:54:17;;;;;;;0.00;0.00;;;21.20;99.90;;;;;;5043295;28;20210;-78
2022/06/16 07:56:55;;;;;;;0.00;0.00;;;21.20;99.90;;;;;;5029879;28;20214;-76
2022/06/16 07:59:23;;;;;;;0.00;0.00;;;21.20;99.90;;;;;;5028980;28;20206;-77
2022/06/16 08:01:50;;;;;;;0.00;0.00;;;21.20;99.90;;;;;;5042170;28;20223;-77
2022/06/16 08:04:23;;;;;;;0.00;0.00;;;21.30;99.90;;;;;;5044840;28;20242;-78
2022/06/16 08:06:50;;;;;;;0.00;0.00;;;21.40;99.90;;;;;;5043829;28;20219;-78
2022/06/16 08:09:17;;;;;;;0.00;0.00;;;21.50;99.90;;;;;;5045227;28;20228;-79
2022/06/16 08:14:42;;;;;;;0.00;0.00;;;21.60;99.90;;;;;;5024485;28;20198;-80
2022/06/16 08:17:11;;;;;;;0.00;0.00;;;21.80;99.90;;;;;;5040542;28;20202;-79
2022/06/16 08:19:39;;;;;;;0.00;0.00;;;21.90;99.90;;;;;;5022869;28;20234;-79
2022/06/16 08:22:07;;;;;;;0.00;0.00;;;22.00;99.90;;;;;;5041174;28;20311;-80
2022/06/16 08:24:34;;;;;;;0.00;0.00;;;22.00;99.90;;;;;;5026416;28;20199;-80
2022/06/16 08:27:02;;;;;;;0.00;0.00;;;22.00;99.90;;;;;;5023446;28;20592;-77
2022/06/16 08:29:31;;;;;;;0.00;0.00;;;21.90;99.90;;;;;;5027498;28;20203;-77
2022/06/16 08:32:00;;;;;;;0.00;0.00;;;21.90;99.90;;;;;;5023557;28;20696;-77
2022/06/16 08:34:27;;;;;;;0.00;0.00;;;21.90;99.90;;;;;;5044697;28;20310;-76
2022/06/16 08:36:54;;;;;;;0.00;0.00;;;21.90;99.90;;;;;;5022996;28;20206;-76
2022/06/16 08:39:21;;;;;;;0.00;0.00;;;21.90;99.90;;;;;;5027540;28;20210;-76
2022/06/16 08:41:51;;;;;;;0.00;0.00;;;21.90;99.90;;;;;;5040084;28;20219;-77
2022/06/16 08:44:23;;;;;;;0.00;0.00;;;22.00;99.90;;;;;;5020227;28;20203;-77
2022/06/16 08:47:01;;;;;;;0.00;0.00;;;22.10;99.90;;;;;;5025716;28;20215;-76
2022/06/16 08:49:39;;;;;;;0.00;0.00;;;22.10;99.90;;;;;;5027795;28;20327;-77
2022/06/16 08:52:30;;;;;;;0.00;0.00;;;22.30;99.90;;;;;;5042782;28;20235;-76
2022/06/16 08:55:06;;;;;;;0.00;0.00;;;22.40;99.90;;;;;;5036727;28;20200;-77
2022/06/16 08:57:43;;;;;;;0.00;0.00;;;22.50;99.90;;;;;;5026951;28;20205;-77
2022/06/16 09:00:14;;;;;;;0.00;0.00;;;22.60;99.90;;;;;;5023898;28;20291;-76
2022/06/16 09:02:47;;;;;;;0.00;0.00;;;22.80;99.90;;;;;;5023607;28;20219;-77
2022/06/16 09:05:42;;;;;;;0.00;0.00;;;23.00;99.90;;;;;;5020083;28;20246;-77
2022/06/16 09:08:19;;;;;;;0.00;0.00;;;23.10;99.90;;;;;;5024924;28;20191;-76
2022/06/16 09:10:51;;;;;;;0.00;0.00;;;23.30;99.90;;;;;;5039068;28;20200;-77
2022/06/16 09:13:50;;;;;;;0.00;0.00;;;23.50;99.90;;;;;;5026357;28;20199;-77
2022/06/16 09:16:26;;;;;;;0.00;0.00;;;;;;;;;;5022072;28;20203;-78
2022/06/16 09:19:02;;;;;;;0.00;0.00;;;;;;;;;;5028766;28;20202;-78
2022/06/16 09:21:38;;;;;;;0.00;0.00;;;23.70;99.90;;;;;;5043680;28;20645;-76
2022/06/16 09:24:18;;;;;;;0.00;0.00;;;23.70;99.90;;;;;;5041167;28;20199;-77
2022/06/16 09:26:49;;;;;;;0.00;0.00;;;23.90;99.90;;;;;;5039525;28;20310;-77
2022/06/16 09:29:19;;;;;;;0.00;0.00;;;;;;;;;;5027102;28;20218;-76
2022/06/16 09:31:49;;;;;;;0.00;0.00;;;;;;;;;;5025452;28;20220;-76
2022/06/16 09:34:23;;;;;;;0.00;0.00;;;24.30;99.90;;;;;;5042807;28;20728;-77
2022/06/16 09:36:57;;;;;;;0.00;0.00;;;24.20;99.90;;;;;;5026749;28;20278;-76
2022/06/16 09:39:26;;;;;;;0.00;0.00;;;;;;;;;;5045382;28;20210;-77
2022/06/16 09:44:47;;;;;;;0.00;0.00;;;;;;;;;;5021036;28;20187;-77
2022/06/16 09:47:18;;;;;;;0.00;0.00;;;;;;;;;;5025471;28;20219;-77
2022/06/16 09:49:50;;;;;;;0.00;0.00;;;24.60;99.90;;;;;;5026412;28;20276;-78
2022/06/16 09:52:22;;;;;;;0.00;0.00;;;;;;;;;;5024927;28;20225;-77
2022/06/16 09:54:55;;;;;;;0.00;0.00;;;24.70;99.90;;;;;;5030286;28;20230;-76
2022/06/16 09:57:27;;;;;;;0.00;0.00;;;24.70;99.90;;;;;;5043866;28;20203;-77
2022/06/16 09:59:57;;;;;;;0.00;0.00;;;;;;;;;;5025678;28;20207;-76
2022/06/16 10:02:29;;;;;;;0.00;0.00;;;24.70;99.90;;;;;;5038871;28;20223;-76
2022/06/16 10:04:57;;;;;;;0.00;0.00;;;24.60;99.90;;;;;;5038633;28;20208;-77
2022/06/16 10:07:31;;;;;;;0.00;0.00;;;24.50;99.90;;;;;;5027626;28;20233;-77
2022/06/16 10:10:03;;;;;;;0.00;0.00;;;24.60;99.90;;;;;;5045263;28;20202;-76
2022/06/16 10:12:36;;;;;;;0.00;0.00;;;24.50;99.90;;;;;;5021804;28;20805;-78
2022/06/16 10:15:10;;;;;;;0.00;0.00;;;24.50;99.90;;;;;;5027117;28;20203;-76
2022/06/16 10:17:39;;;;;;;0.00;0.00;;;24.50;99.90;;;;;;5019178;28;20200;-76
2022/06/16 10:20:07;;;;;;;0.00;0.00;;;;;;;;;;5025442;28;20227;-77
2022/06/16 10:22:38;;;;;;;0.00;0.00;;;;;;;;;;5024683;28;20306;-77
2022/06/16 10:25:08;;;;;;;0.00;0.00;;;;;;;;;;5022608;28;20654;-77
2022/06/16 10:27:37;;;;;;;0.00;0.00;;;;;;;;;;5040438;28;20219;-77
2022/06/16 10:30:07;;;;;;;0.00;0.00;;;;;;;;;;5020168;28;20210;-77
2022/06/16 10:32:39;;;;;;;0.00;0.00;;;;;;;;;;5023395;28;20302;-76
2022/06/16 10:35:07;;;;;;;0.00;0.00;;;;;;;;;;5021730;28;20213;-76
2022/06/16 10:37:40;;;;;;;0.00;0.00;;;;;;;;;;5020930;28;20231;-76
2022/06/16 10:40:13;;;;;;;0.00;0.00;;;25.50;99.90;;;;;;5021007;28;20227;-77
2022/06/16 10:42:43;;;;;;;0.00;0.00;;;25.50;99.90;;;;;;5020289;28;20230;-77
2022/06/16 10:45:16;;;;;;;0.00;0.00;;;25.50;99.90;;;;;;5025578;28;20680;-77
2022/06/16 10:47:49;;;;;;;0.00;0.00;;;25.50;99.90;;;;;;5020266;28;20223;-77
2022/06/16 10:50:21;;;;;;;0.00;0.00;;;25.50;99.90;;;;;;5021803;28;20239;-76
2022/06/16 10:52:53;;;;;;;0.00;0.00;;;25.60;99.90;;;;;;5013785;28;20219;-77
2022/06/16 10:55:24;;;;;;;0.00;0.00;;;25.70;99.90;;;;;;5025808;28;20275;-76
2022/06/16 10:57:59;;;;;;;0.00;0.00;;;25.80;99.90;;;;;;5024927;28;20219;-77
2022/06/16 11:00:29;;;;;;;0.00;0.00;;;25.70;99.90;;;;;;5026281;28;20713;-77
2022/06/16 11:03:16;;;;;;;0.00;0.00;;;25.80;99.90;;;;;;5041521;28;20307;-78
2022/06/16 11:05:53;;;;;;;0.00;0.00;;;;;;;;;;5021958;28;20215;-77
2022/06/16 11:08:23;;;;;;;0.00;0.00;;;25.60;99.90;;;;;;5043157;28;20229;-76
2022/06/16 11:10:54;;;;;;;0.00;0.00;;;25.70;99.90;;;;;;5024700;28;20257;-78
2022/06/16 11:13:27;;;;;;;0.00;0.00;;;25.80;99.90;;;;;;5026247;28;20231;-77
2022/06/16 11:15:54;;;;;;;0.00;0.00;;;;;;;;;;5025783;28;20231;-76
2022/06/16 11:18:23;;;;;;;0.00;0.00;;;;;;;;;;5022010;28;20199;-77
2022/06/16 11:20:51;;;;;;;0.00;0.00;;;;;;;;;;5026356;28;20210;-76
2022/06/16 11:23:25;;;;;;;0.00;0.00;;;25.60;99.90;;;;;;5025609;28;20207;-76
2022/06/16 11:25:59;;;;;;;0.00;0.00;;;25.60;99.90;;;;;;5025749;28;20214;-76
2022/06/16 11:28:27;;;;;;;0.00;0.00;;;25.60;99.90;;;;;;5028450;28;20229;-77
2022/06/16 11:30:56;;;;;;;0.00;0.00;;;;;;;;;;5041395;28;20287;-77
2022/06/16 11:36:10;;;;;;;0.00;0.00;;;;;;;;;;5025580;28;20191;-76
2022/06/16 11:38:40;;;;;;;0.00;0.00;;;;;;;;;;5023510;28;20191;-78
2022/06/16 11:41:10;;;;;;;0.00;0.00;;;;;;;;;;5027521;28;20199;-77
2022/06/16 11:43:54;;;;;;;0.00;0.00;;;;;;;;;;5025209;28;20310;-77
2022/06/16 11:46:28;;;;;;;0.00;0.00;;;;;;;;;;5030772;28;20672;-76
2022/06/16 11:49:43;;;;;;;0.00;0.00;;;;;;;;;;5048703;28;20282;-77
2022/06/16 11:52:37;;;;;;;0.00;0.00;;;;;;;;;;5034605;28;20399;-77
2022/06/16 11:55:11;;;;;;;0.00;0.00;;;;;;;;;;5020311;28;20257;-77
2022/06/16 11:57:43;;;;;;;0.00;0.00;;;;;;;;;;5022507;28;20272;-77
2022/06/16 12:00:17;;;;;;;0.00;0.00;;;;;;;;;;5021381;28;20644;-78
2022/06/16 12:03:00;;;;;;;0.00;0.00;;;;;;;;;;5022300;28;20219;-78
2022/06/16 12:05:33;;;;;;;0.00;0.00;;;;;;;;;;5013938;28;20210;-76
2022/06/16 12:08:14;;;;;;;0.00;0.00;;;;;;;;;;5030347;28;20223;-77
2022/06/16 12:10:45;;;;;;;0.00;0.00;;;;;;;;;;5023515;28;20199;-77
2022/06/16 12:13:17;;;;;;;0.00;0.00;;;;;;;;;;5028122;28;20269;-77
2022/06/16 12:15:51;;;;;;;0.00;0.00;;;;;;;;;;5026344;28;20207;-79
2022/06/16 12:18:25;;;;;;;0.00;0.00;;;;;;;;;;5029008;28;20199;-77
2022/06/16 12:20:59;;;;;;;0.00;0.00;;;;;;;;;;5027642;28;20201;-78
2022/06/16 12:23:31;;;;;;;0.00;0.00;;;26.50;99.90;;;;;;5025026;28;20202;-77
2022/06/16 12:26:06;;;;;;;0.00;0.00;;;26.50;99.90;;;;;;5025177;28;20203;-78
2022/06/16 12:28:39;;;;;;;0.00;0.00;;;26.40;99.90;;;;;;5028696;28;20226;-78
2022/06/16 12:31:12;;;;;;;0.00;0.00;;;26.40;99.90;;;;;;5047261;28;20239;-77
2022/06/16 12:33:44;;;;;;;0.00;0.00;;;26.20;99.90;;;;;;5029484;28;20271;-78
2022/06/16 12:36:15;;;;;;;0.00;0.00;;;26.20;99.90;;;;;;5046023;28;20227;-78
2022/06/16 12:38:47;;;;;;;0.00;0.00;;;26.20;99.90;;;;;;5040991;28;20191;-78
2022/06/16 12:41:20;;;;;;;0.00;0.00;;;26.10;99.90;;;;;;5029656;28;20584;-78
2022/06/16 12:43:52;;;;;;;0.00;0.00;;;26.20;99.90;;;;;;5029266;28;20203;-79
2022/06/16 12:46:24;;;;;;;0.00;0.00;;;26.10;99.90;;;;;;5042197;28;20204;-78
2022/06/16 12:48:58;;;;;;;0.00;0.00;;;26.00;99.90;;;;;;5040291;28;20230;-78
2022/06/16 12:51:32;;;;;;;0.00;0.00;;;25.90;99.90;;;;;;5044090;28;20276;-78
2022/06/16 12:54:04;;;;;;;0.00;0.00;;;25.80;99.90;;;;;;5040638;28;20233;-78
2022/06/16 12:56:38;;;;;;;0.00;0.00;;;25.70;99.90;;;;;;5043714;28;20203;-78
2022/06/16 12:59:10;;;;;;;0.00;0.00;;;25.70;99.90;;;;;;5025522;28;20198;-78
2022/06/16 13:01:38;;;;;;;0.00;0.00;;;25.70;99.90;;;;;;5025558;28;20223;-78
2022/06/16 13:04:11;;;;;;;0.00;0.00;;;25.80;99.90;;;;;;5024503;28;20203;-77
2022/06/16 13:06:42;;;;;;;0.00;0.00;;;25.90;99.90;;;;;;5023348;28;20204;-78
2022/06/16 13:09:13;;;;;;;0.00;0.00;;;25.90;99.90;;;;;;5021043;28;20318;-78
2022/06/16 13:11:48;;;;;;;0.00;0.00;;;25.90;99.90;;;;;;5024716;28;20245;-77
2022/06/16 13:14:22;;;;;;;0.00;0.00;;;25.90;99.90;;;;;;5029065;28;20319;-77
2022/06/16 13:16:50;;;;;;;0.00;0.00;;;25.90;99.90;;;;;;5030947;28;20214;-77
2022/06/16 13:19:22;;;;;;;0.00;0.00;;;25.80;99.90;;;;;;5027429;28;20223;-78
2022/06/16 13:21:55;;;;;;;0.00;0.00;;;25.70;99.90;;;;;;5045100;28;20588;-76
2022/06/16 13:24:24;;;;;;;0.00;0.00;;;25.70;99.90;;;;;;5028346;28;20266;-78
2022/06/16 13:27:09;;;;;;;0.00;0.00;;;25.60;99.90;;;;;;5028284;28;20199;-78
2022/06/16 13:30:13;;;;;;;0.00;0.00;;;25.60;99.90;;;;;;5026404;28;20192;-78
2022/06/16 13:32:42;;;;;;;0.00;0.00;;;25.60;99.90;;;;;;5025193;28;20259;-77
2022/06/16 13:35:31;;;;;;;0.00;0.00;;;25.60;99.90;;;;;;5044483;28;20211;-77
2022/06/16 13:38:28;;;;;;;0.00;0.00;;;25.60;99.90;;;;;;5020121;28;20191;-78
2022/06/16 13:41:49;;;;;;;0.00;0.00;;;25.60;99.90;;;;;;5023472;28;20196;-78
2022/06/16 13:44:26;;;;;;;0.00;0.00;;;25.60;99.90;;;;;;4949158;28;20214;-78
2022/06/16 13:47:23;;;;;;;0.00;0.00;;;25.60;99.90;;;;;;5028752;28;20226;-77
2022/06/16 13:50:06;;;;;;;0.00;0.00;;;25.50;99.90;;;;;;5040482;28;20200;-77
2022/06/16 13:52:36;;;;;;;0.00;0.00;;;25.50;99.90;;;;;;5026688;28;20273;-78
2022/06/16 13:55:23;;;;;;;0.00;0.00;;;25.50;99.90;;;;;;5024821;28;20225;-78
2022/06/16 13:58:22;;;;;;;0.00;0.00;;;25.50;99.90;;;;;;5040412;28;20192;-77
2022/06/16 14:01:18;;;;;;;0.00;0.00;;;25.50;99.90;;;;;;5023702;28;20192;-76
2022/06/16 14:03:56;;;;;;;0.00;0.00;;;25.60;99.90;;;;;;5020523;28;20211;-77